Hlavní strana
METAR-TAF:

METAR-TAF

Letiště :

Vamdrup

Kolding, Dánsko

zeměpisná šířka: 55-26N, zeměpisná délka: 009-20E, výška: 44 m

Aktuální stav počasí

Zpráva byla vytvořena před 24 minutami, v 10:50 UTC
Západoseverozápadní vítr 14 kt
Teplota 5°C
Vlhkost vzduchu 87%
Tlak 1018 hPa
Viditelnost 10 km a více
Skoro jasno ve výšce 700 ft
Oblačno až skoro zataženo ve výšce 1200 ft

METAR: EKVD 071050Z 30014KT 9999 FEW007 BKN012 05/03 Q1018

Čas: 12:14 (11:14 UTC)

Předpověď počasí

Zpráva byla vytvořena před 2 hodinami a 19 minutami, v 08:55 UTC
Předpověď platná od 07 v 09 UTC do 07 v 16 UTC
Západní vítr 12 kt
Viditelnost 10 km a více
Oblačno až skoro zataženo ve výšce 1200 ft
Změna
od 07 v 09 UTC do 07 v 11 UTC
Polojasno ve výšce 3000 ft
Změna
od 07 v 13 UTC do 07 v 16 UTC
Severní vítr 8 kt

TAF: EKVD 070855Z 0709/0716 28012KT 9999 BKN012 BECMG 0709/0711 SCT030 BECMG 0713/0716 35008KT

Stav a předpovědi počasí z více než 4 000 letišť (zprávy METAR a TAF).

Červené a žluté tečky na mapě představují dostupné meteorologické stanice.

Když kurzor umístíte na tečku, zobrazí se název stanice.

Pak kliknutím zobrazíte stav a předpověď počasí.

Chcete-li změnit mapu, kliknutím na zelené tlačítko se znaménkem +mapu přiblížíte, kliknutím na zelené tlačítko se znaménkem – mapu oddálíte a kliknutím na zelené šipky přejdete na sousední mapy.


METAR-TAF: